createdAt,value
2022-08-12T00:02:03.551Z,63.40
2022-08-12T00:04:51.489Z,63.30
2022-08-12T00:07:38.564Z,63.40
2022-08-12T00:10:25.017Z,63.40
2022-08-12T00:13:11.230Z,63.30
2022-08-12T00:15:56.694Z,63.40
2022-08-12T00:18:44.349Z,63.40
2022-08-12T00:21:30.555Z,63.30
2022-08-12T00:24:17.913Z,63.40
2022-08-12T00:27:03.489Z,63.50
2022-08-12T00:29:48.956Z,63.60
2022-08-12T00:32:36.110Z,63.50
2022-08-12T00:35:24.407Z,63.60
2022-08-12T00:38:22.584Z,63.50
2022-08-12T00:41:09.634Z,63.60
2022-08-12T00:43:38.397Z,63.60
2022-08-12T00:46:24.215Z,63.70
2022-08-12T00:48:52.381Z,63.50
2022-08-12T00:51:20.488Z,63.20
2022-08-12T00:53:48.885Z,63.00
2022-08-12T00:56:18.361Z,63.00
2022-08-12T00:58:48.587Z,63.10
2022-08-12T01:01:17.291Z,63.10
2022-08-12T01:04:02.389Z,63.00
2022-08-12T01:06:51.182Z,63.10
2022-08-12T01:09:39.941Z,63.10
2022-08-12T01:12:09.604Z,63.00
2022-08-12T01:14:37.645Z,63.10
2022-08-12T01:17:05.853Z,63.00
2022-08-12T01:19:33.948Z,63.00
2022-08-12T01:22:17.558Z,63.00
2022-08-12T01:24:56.095Z,63.00
2022-08-12T01:27:24.481Z,63.00
2022-08-12T01:29:54.019Z,62.90
2022-08-12T01:32:23.807Z,62.90
2022-08-12T01:35:03.035Z,62.90
2022-08-12T01:37:31.591Z,62.80
2022-08-12T01:40:33.932Z,62.80
2022-08-12T01:42:50.494Z,62.80
2022-08-12T01:45:26.797Z,62.80
2022-08-12T01:48:32.716Z,62.80
2022-08-12T01:51:06.166Z,62.80
2022-08-12T01:53:50.808Z,62.80
2022-08-12T01:59:50.342Z,62.80
2022-08-12T02:02:20.116Z,62.70
2022-08-12T02:05:16.020Z,62.70
2022-08-12T02:08:05.690Z,62.70
2022-08-12T02:10:59.015Z,62.70
2022-08-12T02:13:49.723Z,62.70
2022-08-12T02:16:24.810Z,62.70
2022-08-12T02:18:58.651Z,62.70
2022-08-12T02:21:31.647Z,62.60
2022-08-12T02:24:00.029Z,62.70
2022-08-12T02:26:28.122Z,62.60
2022-08-12T02:28:57.680Z,62.60
2022-08-12T02:31:25.916Z,62.60
2022-08-12T02:33:53.996Z,62.60
2022-08-12T02:36:22.157Z,62.50
2022-08-12T02:38:50.195Z,62.50
2022-08-12T02:41:21.533Z,62.50
2022-08-12T02:43:52.431Z,62.50
2022-08-12T02:46:25.663Z,62.50
2022-08-12T02:48:56.000Z,62.50
2022-08-12T02:51:25.646Z,62.50
2022-08-12T02:54:04.993Z,62.40
2022-08-12T02:56:34.341Z,62.40
2022-08-12T02:59:02.419Z,62.30
2022-08-12T03:01:34.211Z,62.40
2022-08-12T03:04:03.268Z,62.20
2022-08-12T03:06:35.260Z,62.30
2022-08-12T03:09:05.493Z,62.20
2022-08-12T03:11:42.683Z,62.30
2022-08-12T03:14:27.806Z,62.20
2022-08-12T03:17:00.993Z,62.20
2022-08-12T03:19:31.159Z,62.20
2022-08-12T03:22:13.091Z,62.20
2022-08-12T03:24:42.992Z,62.10
2022-08-12T03:27:13.190Z,62.20
2022-08-12T03:29:49.949Z,62.20
2022-08-12T03:32:38.640Z,62.20
2022-08-12T03:35:08.614Z,62.10
2022-08-12T03:37:57.879Z,62.00
2022-08-12T03:40:44.167Z,62.00
2022-08-12T03:43:35.195Z,62.00
2022-08-12T03:46:23.210Z,62.10
2022-08-12T03:49:10.032Z,61.90
2022-08-12T03:51:55.627Z,62.00
2022-08-12T03:54:42.685Z,61.90
2022-08-12T03:57:28.733Z,61.80
2022-08-12T04:00:23.902Z,61.80
2022-08-12T04:02:59.188Z,61.70
2022-08-12T04:05:55.718Z,61.80
2022-08-12T04:08:17.022Z,61.70
2022-08-12T04:11:02.607Z,61.70
2022-08-12T04:13:36.463Z,61.70
2022-08-12T04:16:06.659Z,61.70
2022-08-12T04:18:35.104Z,61.70
2022-08-12T04:21:10.076Z,61.60
2022-08-12T04:23:39.318Z,61.70
2022-08-12T04:26:07.573Z,61.60
2022-08-12T04:28:35.961Z,61.60
2022-08-12T04:31:04.801Z,61.60
2022-08-12T04:33:33.194Z,61.50
2022-08-12T04:36:01.287Z,61.60
2022-08-12T04:38:30.710Z,61.60
2022-08-12T04:40:58.773Z,61.60
2022-08-12T04:43:55.357Z,61.50
2022-08-12T04:46:18.462Z,61.60
2022-08-12T04:48:48.818Z,61.50
2022-08-12T04:51:23.314Z,61.50
2022-08-12T04:53:53.077Z,61.50
2022-08-12T04:56:21.192Z,61.50
2022-08-12T04:58:52.584Z,61.50
2022-08-12T05:01:21.230Z,61.50
2022-08-12T05:03:50.057Z,61.50
2022-08-12T05:06:26.766Z,61.50
2022-08-12T05:09:13.467Z,61.60
2022-08-12T05:11:53.555Z,61.50
2022-08-12T05:14:22.093Z,61.60
2022-08-12T05:16:50.154Z,61.50
2022-08-12T05:19:22.486Z,61.60
2022-08-12T05:21:50.800Z,61.60
2022-08-12T05:24:20.263Z,61.60
2022-08-12T05:26:51.612Z,61.70
2022-08-12T05:30:06.161Z,61.60
2022-08-12T05:32:09.102Z,61.70
2022-08-12T05:34:37.155Z,61.70
2022-08-12T05:37:05.494Z,61.80
2022-08-12T05:39:35.259Z,61.80
2022-08-12T05:42:03.866Z,61.70
2022-08-12T05:44:39.169Z,61.90
2022-08-12T05:47:07.570Z,61.80
2022-08-12T05:49:41.027Z,61.80
2022-08-12T05:52:09.747Z,61.90
2022-08-12T05:54:57.173Z,61.90
2022-08-12T05:57:26.063Z,62.00
2022-08-12T05:59:55.183Z,61.90
2022-08-12T06:02:26.451Z,62.00
2022-08-12T06:04:54.818Z,62.00
2022-08-12T06:07:59.880Z,62.00
2022-08-12T06:10:12.344Z,62.10
2022-08-12T06:12:40.553Z,62.10
2022-08-12T06:15:09.368Z,62.10
2022-08-12T06:17:37.578Z,62.20
2022-08-12T06:20:28.418Z,62.10
2022-08-12T06:22:55.009Z,62.20
2022-08-12T06:25:53.100Z,62.20
2022-08-12T06:31:26.192Z,62.10
2022-08-12T06:34:52.766Z,62.20
2022-08-12T06:36:43.352Z,62.20
2022-08-12T06:39:14.530Z,62.20
2022-08-12T06:42:30.605Z,62.20
2022-08-12T06:44:50.697Z,62.30
2022-08-12T06:47:19.712Z,62.20
2022-08-12T06:49:48.659Z,62.20
2022-08-12T06:52:17.330Z,62.20
2022-08-12T06:54:45.931Z,62.30
2022-08-12T06:58:05.824Z,62.20
2022-08-12T07:00:04.148Z,62.20
2022-08-12T07:02:36.771Z,62.20
2022-08-12T07:05:05.511Z,62.20
2022-08-12T07:07:33.575Z,62.10
2022-08-12T07:10:06.190Z,62.10
2022-08-12T07:12:42.701Z,62.10
2022-08-12T07:15:13.330Z,62.10
2022-08-12T07:17:41.757Z,62.10
2022-08-12T07:20:29.811Z,62.10
2022-08-12T07:22:59.583Z,62.10
2022-08-12T07:25:37.688Z,62.20
2022-08-12T07:28:16.586Z,62.20
2022-08-12T07:30:48.559Z,62.10
2022-08-12T07:33:20.031Z,62.10
2022-08-12T07:35:48.697Z,62.10
2022-08-12T07:38:29.638Z,62.10
2022-08-12T07:41:01.401Z,62.10
2022-08-12T07:43:30.455Z,62.20
2022-08-12T07:46:00.303Z,62.30
2022-08-12T07:48:28.655Z,62.30
2022-08-12T07:50:59.370Z,62.20
2022-08-12T07:53:27.806Z,62.30
2022-08-12T07:55:56.181Z,62.30
2022-08-12T07:58:26.331Z,62.30
2022-08-12T08:00:57.522Z,62.20
2022-08-12T08:03:27.147Z,62.30
2022-08-12T08:05:55.226Z,62.20
2022-08-12T08:08:24.763Z,62.20
2022-08-12T08:11:20.453Z,62.10
2022-08-12T08:13:53.377Z,62.10
2022-08-12T08:16:21.417Z,62.10
2022-08-12T08:18:50.842Z,62.10
2022-08-12T08:21:21.966Z,62.20
2022-08-12T08:24:07.391Z,62.20
2022-08-12T08:26:39.004Z,62.20
2022-08-12T08:29:08.905Z,62.10
2022-08-12T08:31:36.987Z,62.10
2022-08-12T08:34:49.412Z,62.10
2022-08-12T08:36:57.816Z,62.10
2022-08-12T08:39:27.579Z,62.10
2022-08-12T08:42:18.686Z,62.10
2022-08-12T08:44:49.789Z,62.10
2022-08-12T08:47:26.348Z,62.10
2022-08-12T08:50:01.243Z,62.10
2022-08-12T08:52:39.075Z,62.10
2022-08-12T08:55:09.830Z,62.00
2022-08-12T08:57:43.402Z,62.10
2022-08-12T09:00:15.281Z,62.00
2022-08-12T09:02:49.075Z,62.00
2022-08-12T09:05:28.166Z,62.10
2022-08-12T09:12:07.243Z,62.10
2022-08-12T09:14:18.665Z,62.00
2022-08-12T09:16:58.427Z,62.00
2022-08-12T09:19:28.017Z,62.00
2022-08-12T09:22:00.248Z,62.00
2022-08-12T09:24:28.520Z,62.00
2022-08-12T09:26:59.165Z,62.00
2022-08-12T09:30:10.746Z,62.00
2022-08-12T09:32:56.722Z,62.00
2022-08-12T09:35:18.735Z,62.00
2022-08-12T09:37:58.043Z,61.90
2022-08-12T09:40:57.403Z,62.00
2022-08-12T09:43:36.030Z,61.90
2022-08-12T09:46:11.215Z,61.90
2022-08-12T09:48:56.288Z,61.90
2022-08-12T09:51:25.064Z,61.90
2022-08-12T09:54:34.191Z,61.90
2022-08-12T09:58:07.487Z,61.90
2022-08-12T10:00:13.993Z,61.90
2022-08-12T10:02:41.902Z,61.90
2022-08-12T10:05:17.849Z,61.90
2022-08-12T10:07:48.323Z,61.90
2022-08-12T10:10:23.968Z,61.90
2022-08-12T10:13:33.856Z,61.90
2022-08-12T10:16:07.170Z,61.90
2022-08-12T10:18:51.999Z,61.90
2022-08-12T10:21:23.936Z,61.90
2022-08-12T10:24:07.269Z,61.90
2022-08-12T10:26:55.226Z,61.90
2022-08-12T10:30:11.907Z,61.90
2022-08-12T10:32:42.877Z,61.90
2022-08-12T10:35:14.735Z,61.90
2022-08-12T10:38:33.549Z,61.90
2022-08-12T10:40:57.767Z,61.90
2022-08-12T10:43:55.755Z,61.90
2022-08-12T10:46:24.462Z,61.90
2022-08-12T10:49:06.538Z,61.80
2022-08-12T10:52:02.931Z,61.80
2022-08-12T10:54:33.194Z,61.80
2022-08-12T10:57:04.336Z,61.80
2022-08-12T11:00:32.009Z,61.90
2022-08-12T11:04:28.594Z,61.80
2022-08-12T11:07:10.202Z,61.80
2022-08-12T11:08:34.698Z,61.80
2022-08-12T11:10:56.428Z,61.80
2022-08-12T11:13:45.820Z,61.80
2022-08-12T11:16:19.741Z,61.80
2022-08-12T11:18:58.813Z,61.80
2022-08-12T11:21:58.069Z,61.70
2022-08-12T11:24:31.853Z,61.80
2022-08-12T11:27:01.294Z,61.70
2022-08-12T11:30:01.817Z,61.70
2022-08-12T11:32:19.573Z,61.80
2022-08-12T11:34:51.646Z,61.70
2022-08-12T11:37:26.457Z,61.70
2022-08-12T11:42:35.837Z,61.70
2022-08-12T11:45:05.967Z,61.60
2022-08-12T11:47:40.447Z,61.60
2022-08-12T11:50:11.916Z,61.60
2022-08-12T11:52:55.782Z,61.70
2022-08-12T11:55:25.050Z,61.60
2022-08-12T11:58:15.193Z,61.60
2022-08-12T12:03:45.930Z,61.50
2022-08-12T12:06:17.065Z,61.50
2022-08-12T12:08:50.504Z,61.40
2022-08-12T12:11:19.326Z,61.40
2022-08-12T12:14:07.657Z,61.30
2022-08-12T12:16:39.692Z,61.40
2022-08-12T12:19:11.427Z,61.30
2022-08-12T12:21:47.212Z,61.30
2022-08-12T12:24:20.828Z,61.30
2022-08-12T12:26:59.722Z,61.30
2022-08-12T12:30:18.782Z,61.30
2022-08-12T12:32:18.308Z,61.20
2022-08-12T12:35:14.238Z,61.20
2022-08-12T12:38:04.554Z,61.30
2022-08-12T12:40:30.071Z,61.20
2022-08-12T12:43:01.902Z,61.30
2022-08-12T12:45:33.837Z,61.20
2022-08-12T12:48:05.735Z,61.20
2022-08-12T12:50:44.103Z,61.10
2022-08-12T12:54:07.278Z,61.10
2022-08-12T12:56:13.139Z,61.10
2022-08-12T12:58:43.554Z,61.20
2022-08-12T13:01:26.984Z,61.20
2022-08-12T13:04:02.182Z,61.10
2022-08-12T13:06:32.376Z,61.00
2022-08-12T13:09:03.674Z,61.00
2022-08-12T13:11:32.714Z,61.00
2022-08-12T13:14:28.275Z,61.00
2022-08-12T13:17:02.720Z,60.90
2022-08-12T13:19:46.667Z,60.90
2022-08-12T13:22:19.372Z,60.90
2022-08-12T13:24:54.629Z,60.80
2022-08-12T13:27:28.249Z,60.90
2022-08-12T13:30:01.999Z,60.80
2022-08-12T13:32:32.106Z,60.90
2022-08-12T13:35:04.483Z,60.80
2022-08-12T13:37:54.935Z,60.80
2022-08-12T13:40:24.837Z,60.80
2022-08-12T13:42:57.958Z,60.80
2022-08-12T13:45:26.383Z,60.80
2022-08-12T13:47:56.064Z,60.80
2022-08-12T13:50:29.929Z,60.80
2022-08-12T13:53:01.303Z,60.70
2022-08-12T13:55:49.881Z,60.70
2022-08-12T13:58:30.647Z,60.70
2022-08-12T14:01:05.066Z,60.70
2022-08-12T14:03:50.668Z,60.60
2022-08-12T14:06:30.413Z,60.60
2022-08-12T14:09:14.422Z,60.70
2022-08-12T14:11:51.283Z,60.60
2022-08-12T14:14:31.156Z,60.60
2022-08-12T14:17:05.450Z,60.50
2022-08-12T14:19:38.102Z,60.50
2022-08-12T14:22:18.211Z,60.50
2022-08-12T14:24:47.626Z,60.50
2022-08-12T14:28:03.684Z,60.40
2022-08-12T14:30:24.150Z,60.50
2022-08-12T14:32:57.884Z,60.40
2022-08-12T14:35:26.206Z,60.30
2022-08-12T14:37:57.744Z,60.40
2022-08-12T14:40:29.191Z,60.30
2022-08-12T14:43:06.279Z,60.30
2022-08-12T14:46:15.637Z,60.30
2022-08-12T14:53:50.691Z,60.30
2022-08-12T14:58:17.608Z,60.30
2022-08-12T15:01:03.644Z,60.30
2022-08-12T15:03:52.566Z,60.20
2022-08-12T15:06:43.555Z,60.20
2022-08-12T15:09:12.168Z,60.20
2022-08-12T15:11:58.156Z,60.20
2022-08-12T15:14:35.439Z,60.20
2022-08-12T15:17:07.085Z,60.20
2022-08-12T15:20:11.276Z,60.10
2022-08-12T15:22:37.408Z,60.20
2022-08-12T15:25:09.025Z,60.10
2022-08-12T15:28:20.472Z,60.10
2022-08-12T15:30:43.229Z,60.10
2022-08-12T15:33:20.938Z,60.10
2022-08-12T15:35:53.022Z,60.20
2022-08-12T15:38:25.304Z,60.20
2022-08-12T15:40:54.568Z,60.20
2022-08-12T15:44:16.411Z,60.00
2022-08-12T15:46:21.249Z,60.00
2022-08-12T15:48:53.974Z,59.80
2022-08-12T15:51:59.946Z,59.80
2022-08-12T15:54:35.041Z,59.80
2022-08-12T15:57:08.197Z,59.90
2022-08-12T16:00:33.111Z,59.90
2022-08-12T16:03:45.325Z,60.00
2022-08-12T16:10:09.568Z,60.00
2022-08-12T16:12:43.437Z,59.80
2022-08-12T16:15:42.256Z,59.90
2022-08-12T16:18:18.595Z,59.90
2022-08-12T16:20:52.012Z,59.80
2022-08-12T16:23:50.999Z,59.80
2022-08-12T16:26:14.664Z,59.80
2022-08-12T16:28:44.322Z,59.80
2022-08-12T16:31:23.485Z,59.70
2022-08-12T16:33:58.978Z,59.70
2022-08-12T16:36:30.575Z,59.70
2022-08-12T16:39:01.693Z,59.70
2022-08-12T16:41:37.824Z,59.60
2022-08-12T16:44:13.303Z,59.70
2022-08-12T16:46:57.934Z,59.60
2022-08-12T16:49:26.410Z,59.60
2022-08-12T16:52:08.008Z,59.60
2022-08-12T16:54:40.816Z,59.60
2022-08-12T16:57:09.670Z,59.50
2022-08-12T16:59:53.365Z,59.50
2022-08-12T17:02:33.491Z,59.40
2022-08-12T17:05:04.820Z,59.50
2022-08-12T17:07:43.157Z,59.40
2022-08-12T17:10:12.451Z,59.40
2022-08-12T17:12:40.503Z,59.40
2022-08-12T17:15:50.731Z,59.50
2022-08-12T17:18:39.478Z,59.50
2022-08-12T17:20:47.734Z,59.50
2022-08-12T17:23:19.330Z,59.50
2022-08-12T17:25:54.133Z,59.50
2022-08-12T17:28:28.242Z,59.50
2022-08-12T17:31:02.652Z,59.60
2022-08-12T17:33:33.384Z,59.50
2022-08-12T17:36:03.646Z,59.60
2022-08-12T17:38:34.724Z,59.60
2022-08-12T17:41:22.284Z,59.60
2022-08-12T17:43:56.825Z,59.60
2022-08-12T17:46:33.527Z,59.60
2022-08-12T17:51:50.540Z,59.50
2022-08-12T17:54:20.455Z,59.60
2022-08-12T17:56:51.844Z,59.60
2022-08-12T17:59:47.754Z,59.60
2022-08-12T18:02:09.131Z,59.60
2022-08-12T18:04:37.655Z,59.60
2022-08-12T18:07:08.565Z,59.60
2022-08-12T18:09:41.093Z,59.60
2022-08-12T18:12:31.770Z,59.50
2022-08-12T18:15:08.965Z,59.60
2022-08-12T18:17:39.407Z,59.60
2022-08-12T18:20:08.715Z,59.60
2022-08-12T18:22:43.970Z,59.50
2022-08-12T18:26:15.683Z,59.60
2022-08-12T18:28:15.592Z,59.50
2022-08-12T18:31:03.025Z,59.60
2022-08-12T18:33:31.812Z,59.60
2022-08-12T18:36:13.085Z,59.50
2022-08-12T18:38:44.656Z,59.50
2022-08-12T18:41:33.584Z,59.50
2022-08-12T18:44:06.084Z,59.60
2022-08-12T18:46:54.035Z,59.60
2022-08-12T18:49:29.733Z,59.60
2022-08-12T18:52:04.356Z,59.60
2022-08-12T18:54:36.079Z,59.60
2022-08-12T18:57:16.626Z,59.60
2022-08-12T19:00:00.998Z,59.50
2022-08-12T19:02:40.182Z,59.60
2022-08-12T19:05:10.912Z,59.60
2022-08-12T19:07:50.147Z,59.60
2022-08-12T19:10:36.319Z,59.50
2022-08-12T19:13:42.886Z,59.60
2022-08-12T19:16:12.638Z,59.60
2022-08-12T19:18:52.490Z,59.60
2022-08-12T19:21:20.600Z,59.60
2022-08-12T19:24:09.573Z,59.60
2022-08-12T19:26:36.631Z,59.60
2022-08-12T19:29:08.188Z,59.60
2022-08-12T19:31:57.751Z,59.70
2022-08-12T19:37:22.871Z,59.70
2022-08-12T19:40:09.738Z,59.80
2022-08-12T19:42:57.660Z,59.80
2022-08-12T19:45:42.109Z,59.80
2022-08-12T19:48:17.081Z,59.80
2022-08-12T19:50:49.965Z,59.80
2022-08-12T19:53:22.787Z,59.90
2022-08-12T19:55:52.951Z,59.90
2022-08-12T19:58:23.673Z,60.00
2022-08-12T20:00:54.595Z,60.00
2022-08-12T20:03:38.767Z,60.00
2022-08-12T20:06:15.939Z,60.00
2022-08-12T20:08:48.741Z,60.00
2022-08-12T20:12:11.724Z,60.00
2022-08-12T20:14:11.832Z,60.00
2022-08-12T20:16:52.902Z,60.00
2022-08-12T20:20:05.594Z,60.10
2022-08-12T20:22:24.663Z,60.10
2022-08-12T20:25:01.570Z,60.10
2022-08-12T20:28:02.771Z,60.10
2022-08-12T20:30:20.260Z,60.20
2022-08-12T20:32:56.164Z,60.20
2022-08-12T20:35:25.041Z,60.10
2022-08-12T20:38:26.081Z,60.20
2022-08-12T20:41:16.200Z,60.20
2022-08-12T20:43:45.935Z,60.30
2022-08-12T20:46:15.237Z,60.30
2022-08-12T20:48:46.948Z,60.40
2022-08-12T20:51:22.749Z,60.40
2022-08-12T20:53:58.307Z,60.50
2022-08-12T20:56:33.083Z,60.50
2022-08-12T20:59:03.393Z,60.60
2022-08-12T21:01:47.105Z,60.60
2022-08-12T21:04:46.210Z,60.70
2022-08-12T21:07:14.530Z,60.70
2022-08-12T21:09:45.513Z,60.70
2022-08-12T21:12:28.572Z,60.70
2022-08-12T21:15:23.407Z,60.70
2022-08-12T21:18:09.100Z,60.80
2022-08-12T21:20:40.803Z,60.80
2022-08-12T21:23:10.060Z,60.90
2022-08-12T21:25:45.704Z,60.90
2022-08-12T21:28:14.568Z,60.90
2022-08-12T21:31:11.741Z,60.90
2022-08-12T21:33:31.799Z,61.00
2022-08-12T21:36:02.893Z,61.00
2022-08-12T21:38:40.353Z,61.00
2022-08-12T21:41:15.718Z,61.10
2022-08-12T21:43:52.598Z,61.10
2022-08-12T21:46:34.737Z,61.20
2022-08-12T21:49:05.478Z,61.10
2022-08-12T21:51:50.220Z,61.10
2022-08-12T21:54:21.721Z,61.20
2022-08-12T21:56:50.451Z,61.20
2022-08-12T21:59:18.947Z,61.10
2022-08-12T22:01:48.925Z,61.10
2022-08-12T22:04:37.186Z,61.20
2022-08-12T22:07:07.084Z,61.20
2022-08-12T22:09:43.060Z,61.10
2022-08-12T22:12:29.331Z,61.10
2022-08-12T22:14:57.423Z,61.20
2022-08-12T22:17:33.844Z,61.10
2022-08-12T22:20:22.002Z,61.10
2022-08-12T22:22:56.861Z,61.10
2022-08-12T22:25:27.944Z,61.10
2022-08-12T22:28:14.181Z,61.10
2022-08-12T22:30:59.949Z,61.10
2022-08-12T22:33:28.093Z,61.20
2022-08-12T22:35:59.858Z,61.20
2022-08-12T22:38:29.846Z,61.20
2022-08-12T22:41:00.689Z,61.20
2022-08-12T22:43:59.151Z,61.20
2022-08-12T22:46:52.606Z,61.10
2022-08-12T22:49:48.612Z,61.20
2022-08-12T22:52:23.180Z,61.10
2022-08-12T22:55:03.414Z,61.10
2022-08-12T22:57:53.574Z,61.10
2022-08-12T23:00:28.659Z,61.10
2022-08-12T23:03:02.707Z,61.10
2022-08-12T23:05:36.725Z,61.10
2022-08-12T23:08:21.965Z,61.10
2022-08-12T23:10:51.612Z,61.20
2022-08-12T23:13:43.064Z,61.10
2022-08-12T23:16:29.199Z,61.10
2022-08-12T23:19:09.320Z,61.10
2022-08-12T23:22:03.454Z,61.10
2022-08-12T23:24:28.810Z,61.10
2022-08-12T23:27:15.907Z,61.10
2022-08-12T23:30:17.534Z,61.20
2022-08-12T23:32:37.242Z,61.20
2022-08-12T23:35:18.795Z,61.30
2022-08-12T23:37:54.732Z,61.40
2022-08-12T23:40:24.776Z,61.40
2022-08-12T23:42:55.645Z,61.40
2022-08-12T23:45:30.685Z,61.40
2022-08-12T23:48:00.355Z,61.10
2022-08-12T23:50:34.037Z,61.00
2022-08-12T23:53:05.322Z,61.00
2022-08-12T23:55:41.169Z,61.20
2022-08-12T23:58:21.680Z,61.30
